sensor_id;sensor_type;location;lat;lon;timestamp;pressure;altitude;pressure_sealevel;temperature;humidity
28927;BME280;16038;47.692;9.400;2023-03-05T00:01:26;96932.34;;;-0.85;100.00
28927;BME280;16038;47.692;9.400;2023-03-05T00:03:53;96935.44;;;-0.73;100.00
28927;BME280;16038;47.692;9.400;2023-03-05T00:06:19;96944.25;;;-0.67;100.00
28927;BME280;16038;47.692;9.400;2023-03-05T00:08:45;96943.97;;;-0.66;100.00
28927;BME280;16038;47.692;9.400;2023-03-05T00:11:11;96942.00;;;-0.60;100.00
28927;BME280;16038;47.692;9.400;2023-03-05T00:13:37;96945.88;;;-0.47;100.00
28927;BME280;16038;47.692;9.400;2023-03-05T00:16:06;96948.16;;;-0.35;100.00
28927;BME280;16038;47.692;9.400;2023-03-05T00:18:32;96944.00;;;-0.28;100.00
28927;BME280;16038;47.692;9.400;2023-03-05T00:20:58;96952.75;;;-0.36;100.00
28927;BME280;16038;47.692;9.400;2023-03-05T00:23:23;96953.59;;;-0.41;100.00
28927;BME280;16038;47.692;9.400;2023-03-05T00:25:48;96940.25;;;-0.27;100.00
28927;BME280;16038;47.692;9.400;2023-03-05T00:28:14;96944.97;;;-0.18;100.00
28927;BME280;16038;47.692;9.400;2023-03-05T00:30:39;96939.94;;;-0.06;100.00
28927;BME280;16038;47.692;9.400;2023-03-05T00:33:05;96940.00;;;0.08;100.00
28927;BME280;16038;47.692;9.400;2023-03-05T00:35:30;96935.63;;;0.12;100.00
28927;BME280;16038;47.692;9.400;2023-03-05T00:37:56;96930.81;;;0.09;100.00
28927;BME280;16038;47.692;9.400;2023-03-05T00:40:21;96926.53;;;-0.11;100.00
28927;BME280;16038;47.692;9.400;2023-03-05T00:42:47;96928.38;;;-0.07;100.00
28927;BME280;16038;47.692;9.400;2023-03-05T00:45:12;96936.28;;;-0.34;100.00
28927;BME280;16038;47.692;9.400;2023-03-05T00:47:38;96919.34;;;-0.54;100.00
28927;BME280;16038;47.692;9.400;2023-03-05T00:50:04;96927.44;;;-0.78;100.00
28927;BME280;16038;47.692;9.400;2023-03-05T00:52:30;96924.72;;;-0.97;100.00
28927;BME280;16038;47.692;9.400;2023-03-05T00:54:55;96923.56;;;-1.15;100.00
28927;BME280;16038;47.692;9.400;2023-03-05T00:57:21;96908.22;;;-1.14;100.00
28927;BME280;16038;47.692;9.400;2023-03-05T00:59:46;96914.69;;;-1.16;100.00
28927;BME280;16038;47.692;9.400;2023-03-05T01:02:12;96919.31;;;-1.21;100.00
28927;BME280;16038;47.692;9.400;2023-03-05T01:04:37;96916.28;;;-1.14;100.00
28927;BME280;16038;47.692;9.400;2023-03-05T01:07:03;96906.41;;;-0.95;100.00
28927;BME280;16038;47.692;9.400;2023-03-05T01:09:28;96905.34;;;-0.56;100.00
28927;BME280;16038;47.692;9.400;2023-03-05T01:11:54;96903.56;;;-0.42;100.00
28927;BME280;16038;47.692;9.400;2023-03-05T01:14:20;96900.16;;;-0.28;100.00
28927;BME280;16038;47.692;9.400;2023-03-05T01:16:45;96893.97;;;-0.29;100.00
28927;BME280;16038;47.692;9.400;2023-03-05T01:19:11;96894.56;;;-0.32;100.00
28927;BME280;16038;47.692;9.400;2023-03-05T01:21:37;96889.09;;;-0.27;100.00
28927;BME280;16038;47.692;9.400;2023-03-05T01:24:02;96886.97;;;-0.30;100.00
28927;BME280;16038;47.692;9.400;2023-03-05T01:26:28;96881.44;;;-0.39;100.00
28927;BME280;16038;47.692;9.400;2023-03-05T01:28:54;96876.59;;;-0.55;100.00
28927;BME280;16038;47.692;9.400;2023-03-05T01:31:19;96881.59;;;-0.68;100.00
28927;BME280;16038;47.692;9.400;2023-03-05T01:33:45;96879.06;;;-0.59;100.00
28927;BME280;16038;47.692;9.400;2023-03-05T01:36:11;96883.41;;;-0.44;100.00
28927;BME280;16038;47.692;9.400;2023-03-05T01:38:39;96875.22;;;-0.34;100.00
28927;BME280;16038;47.692;9.400;2023-03-05T01:41:05;96871.97;;;-0.17;100.00
28927;BME280;16038;47.692;9.400;2023-03-05T01:43:30;96865.53;;;0.17;100.00
28927;BME280;16038;47.692;9.400;2023-03-05T01:48:45;96861.44;;;-0.13;100.00
28927;BME280;16038;47.692;9.400;2023-03-05T01:51:11;96863.41;;;-0.19;100.00
28927;BME280;16038;47.692;9.400;2023-03-05T01:53:37;96854.03;;;-0.22;100.00
28927;BME280;16038;47.692;9.400;2023-03-05T01:56:03;96862.63;;;-0.39;100.00
28927;BME280;16038;47.692;9.400;2023-03-05T01:58:28;96856.50;;;-0.44;100.00
28927;BME280;16038;47.692;9.400;2023-03-05T02:00:53;96851.13;;;-0.44;100.00
28927;BME280;16038;47.692;9.400;2023-03-05T02:03:19;96845.75;;;-0.25;100.00
28927;BME280;16038;47.692;9.400;2023-03-05T02:05:46;96846.47;;;-0.20;100.00
28927;BME280;16038;47.692;9.400;2023-03-05T02:08:13;96835.47;;;-0.23;100.00
28927;BME280;16038;47.692;9.400;2023-03-05T02:10:43;96837.34;;;-0.24;100.00
28927;BME280;16038;47.692;9.400;2023-03-05T02:13:10;96827.53;;;-0.14;100.00
28927;BME280;16038;47.692;9.400;2023-03-05T02:15:36;96828.84;;;-0.12;100.00
28927;BME280;16038;47.692;9.400;2023-03-05T02:18:02;96832.22;;;-0.06;100.00
28927;BME280;16038;47.692;9.400;2023-03-05T02:20:29;96833.38;;;0.07;100.00
28927;BME280;16038;47.692;9.400;2023-03-05T02:22:55;96824.53;;;0.20;100.00
28927;BME280;16038;47.692;9.400;2023-03-05T02:27:51;96816.63;;;0.10;100.00
28927;BME280;16038;47.692;9.400;2023-03-05T02:30:19;96816.91;;;0.08;100.00
28927;BME280;16038;47.692;9.400;2023-03-05T02:32:44;96813.09;;;-0.05;100.00
28927;BME280;16038;47.692;9.400;2023-03-05T02:35:10;96812.25;;;-0.19;100.00
28927;BME280;16038;47.692;9.400;2023-03-05T02:37:35;96812.75;;;-0.17;100.00
28927;BME280;16038;47.692;9.400;2023-03-05T02:40:01;96815.00;;;-0.05;100.00
28927;BME280;16038;47.692;9.400;2023-03-05T02:42:27;96807.44;;;0.11;100.00
28927;BME280;16038;47.692;9.400;2023-03-05T02:44:52;96805.56;;;0.25;100.00
28927;BME280;16038;47.692;9.400;2023-03-05T02:47:18;96795.31;;;0.27;100.00
28927;BME280;16038;47.692;9.400;2023-03-05T02:49:43;96793.81;;;0.35;100.00
28927;BME280;16038;47.692;9.400;2023-03-05T02:52:09;96793.22;;;0.66;100.00
28927;BME280;16038;47.692;9.400;2023-03-05T02:54:34;96791.22;;;0.57;100.00
28927;BME280;16038;47.692;9.400;2023-03-05T02:56:59;96789.03;;;0.46;100.00
28927;BME280;16038;47.692;9.400;2023-03-05T02:59:25;96781.66;;;0.24;100.00
28927;BME280;16038;47.692;9.400;2023-03-05T03:01:50;96786.53;;;-0.11;100.00
28927;BME280;16038;47.692;9.400;2023-03-05T03:04:16;96779.94;;;-0.19;100.00
28927;BME280;16038;47.692;9.400;2023-03-05T03:06:41;96770.25;;;-0.20;100.00
28927;BME280;16038;47.692;9.400;2023-03-05T03:09:07;96772.16;;;-0.21;100.00
28927;BME280;16038;47.692;9.400;2023-03-05T03:11:32;96773.16;;;-0.16;100.00
28927;BME280;16038;47.692;9.400;2023-03-05T03:13:58;96766.69;;;-0.15;100.00
28927;BME280;16038;47.692;9.400;2023-03-05T03:16:24;96762.41;;;-0.16;100.00
28927;BME280;16038;47.692;9.400;2023-03-05T03:18:49;96759.50;;;-0.20;100.00
28927;BME280;16038;47.692;9.400;2023-03-05T03:21:15;96755.50;;;-0.23;100.00
28927;BME280;16038;47.692;9.400;2023-03-05T03:23:40;96754.63;;;-0.18;100.00
28927;BME280;16038;47.692;9.400;2023-03-05T03:26:06;96752.56;;;-0.07;100.00
28927;BME280;16038;47.692;9.400;2023-03-05T03:28:31;96753.28;;;-0.02;100.00
28927;BME280;16038;47.692;9.400;2023-03-05T03:30:56;96758.53;;;-0.10;100.00
28927;BME280;16038;47.692;9.400;2023-03-05T03:33:22;96747.16;;;-0.21;100.00
28927;BME280;16038;47.692;9.400;2023-03-05T03:35:47;96745.19;;;-0.34;100.00
28927;BME280;16038;47.692;9.400;2023-03-05T03:38:12;96745.00;;;-0.38;100.00
28927;BME280;16038;47.692;9.400;2023-03-05T03:40:39;96742.91;;;-0.41;100.00
28927;BME280;16038;47.692;9.400;2023-03-05T03:43:04;96744.28;;;-0.44;100.00
28927;BME280;16038;47.692;9.400;2023-03-05T03:45:30;96746.91;;;-0.39;100.00
28927;BME280;16038;47.692;9.400;2023-03-05T03:47:55;96740.97;;;-0.08;100.00
28927;BME280;16038;47.692;9.400;2023-03-05T03:50:20;96743.91;;;0.10;100.00
28927;BME280;16038;47.692;9.400;2023-03-05T03:52:49;96741.31;;;0.18;100.00
28927;BME280;16038;47.692;9.400;2023-03-05T03:55:14;96738.22;;;0.25;100.00
28927;BME280;16038;47.692;9.400;2023-03-05T03:57:40;96736.03;;;0.41;100.00
28927;BME280;16038;47.692;9.400;2023-03-05T04:00:06;96728.63;;;0.47;100.00
28927;BME280;16038;47.692;9.400;2023-03-05T04:02:31;96732.16;;;0.47;100.00
28927;BME280;16038;47.692;9.400;2023-03-05T04:04:57;96736.13;;;0.50;100.00
28927;BME280;16038;47.692;9.400;2023-03-05T04:07:22;96731.81;;;0.63;100.00
28927;BME280;16038;47.692;9.400;2023-03-05T04:09:47;96727.94;;;0.69;100.00
28927;BME280;16038;47.692;9.400;2023-03-05T04:12:13;96727.25;;;0.63;100.00
28927;BME280;16038;47.692;9.400;2023-03-05T04:14:45;96729.56;;;0.56;100.00
28927;BME280;16038;47.692;9.400;2023-03-05T04:17:11;96732.75;;;0.58;100.00
28927;BME280;16038;47.692;9.400;2023-03-05T04:19:36;96722.16;;;0.48;100.00
28927;BME280;16038;47.692;9.400;2023-03-05T04:22:02;96733.84;;;0.43;100.00
28927;BME280;16038;47.692;9.400;2023-03-05T04:24:27;96730.34;;;0.56;100.00
28927;BME280;16038;47.692;9.400;2023-03-05T04:26:52;96729.22;;;0.71;100.00
28927;BME280;16038;47.692;9.400;2023-03-05T04:29:18;96731.31;;;0.74;100.00
28927;BME280;16038;47.692;9.400;2023-03-05T04:31:43;96718.97;;;0.46;100.00
28927;BME280;16038;47.692;9.400;2023-03-05T04:34:08;96713.16;;;0.11;100.00
28927;BME280;16038;47.692;9.400;2023-03-05T04:36:34;96718.31;;;-0.21;100.00
28927;BME280;16038;47.692;9.400;2023-03-05T04:38:59;96713.84;;;-0.25;100.00
28927;BME280;16038;47.692;9.400;2023-03-05T04:41:25;96711.41;;;-0.41;100.00
28927;BME280;16038;47.692;9.400;2023-03-05T04:43:50;96701.09;;;-0.52;100.00
28927;BME280;16038;47.692;9.400;2023-03-05T04:46:15;96708.09;;;-0.51;100.00
28927;BME280;16038;47.692;9.400;2023-03-05T04:48:41;96697.81;;;-0.49;100.00
28927;BME280;16038;47.692;9.400;2023-03-05T04:51:06;96701.22;;;-0.57;100.00
28927;BME280;16038;47.692;9.400;2023-03-05T04:53:31;96697.41;;;-0.56;100.00
28927;BME280;16038;47.692;9.400;2023-03-05T04:55:57;96696.81;;;-0.53;100.00
28927;BME280;16038;47.692;9.400;2023-03-05T04:58:25;96692.72;;;-0.51;100.00
28927;BME280;16038;47.692;9.400;2023-03-05T05:00:51;96686.34;;;-0.55;100.00
28927;BME280;16038;47.692;9.400;2023-03-05T05:03:16;96678.13;;;-0.45;100.00
28927;BME280;16038;47.692;9.400;2023-03-05T05:05:41;96682.44;;;-0.30;100.00
28927;BME280;16038;47.692;9.400;2023-03-05T05:08:07;96673.06;;;-0.18;100.00
28927;BME280;16038;47.692;9.400;2023-03-05T05:10:34;96681.53;;;-0.11;100.00
28927;BME280;16038;47.692;9.400;2023-03-05T05:13:02;96673.88;;;-0.04;100.00
28927;BME280;16038;47.692;9.400;2023-03-05T05:15:28;96674.09;;;0.13;100.00
28927;BME280;16038;47.692;9.400;2023-03-05T05:17:53;96679.47;;;0.13;100.00
28927;BME280;16038;47.692;9.400;2023-03-05T05:20:19;96681.56;;;0.16;100.00
28927;BME280;16038;47.692;9.400;2023-03-05T05:22:44;96679.56;;;0.22;100.00
28927;BME280;16038;47.692;9.400;2023-03-05T05:25:10;96675.06;;;0.31;100.00
28927;BME280;16038;47.692;9.400;2023-03-05T05:27:36;96675.47;;;0.38;100.00
28927;BME280;16038;47.692;9.400;2023-03-05T05:30:02;96681.06;;;0.42;100.00
28927;BME280;16038;47.692;9.400;2023-03-05T05:32:28;96679.03;;;0.48;100.00
28927;BME280;16038;47.692;9.400;2023-03-05T05:34:54;96669.34;;;0.47;100.00
28927;BME280;16038;47.692;9.400;2023-03-05T05:37:20;96673.06;;;0.51;100.00
28927;BME280;16038;47.692;9.400;2023-03-05T05:39:45;96678.34;;;0.56;100.00
28927;BME280;16038;47.692;9.400;2023-03-05T05:42:15;96676.44;;;0.56;100.00
28927;BME280;16038;47.692;9.400;2023-03-05T05:44:40;96682.22;;;0.50;100.00
28927;BME280;16038;47.692;9.400;2023-03-05T05:47:06;96677.75;;;0.45;100.00
28927;BME280;16038;47.692;9.400;2023-03-05T05:49:31;96678.06;;;0.44;100.00
28927;BME280;16038;47.692;9.400;2023-03-05T05:51:56;96684.44;;;0.48;100.00
28927;BME280;16038;47.692;9.400;2023-03-05T05:54:23;96677.53;;;0.55;100.00
28927;BME280;16038;47.692;9.400;2023-03-05T05:56:48;96673.56;;;0.53;100.00
28927;BME280;16038;47.692;9.400;2023-03-05T05:59:13;96676.94;;;0.59;100.00
28927;BME280;16038;47.692;9.400;2023-03-05T06:01:39;96664.44;;;0.63;100.00
28927;BME280;16038;47.692;9.400;2023-03-05T06:04:04;96665.16;;;0.54;100.00
28927;BME280;16038;47.692;9.400;2023-03-05T06:06:30;96665.97;;;0.55;100.00
28927;BME280;16038;47.692;9.400;2023-03-05T06:08:55;96670.28;;;0.42;100.00
28927;BME280;16038;47.692;9.400;2023-03-05T06:11:21;96672.56;;;0.35;100.00
28927;BME280;16038;47.692;9.400;2023-03-05T06:13:46;96673.75;;;0.29;100.00
28927;BME280;16038;47.692;9.400;2023-03-05T06:16:13;96668.06;;;0.30;100.00
28927;BME280;16038;47.692;9.400;2023-03-05T06:18:39;96671.25;;;0.32;100.00
28927;BME280;16038;47.692;9.400;2023-03-05T06:21:05;96678.94;;;0.25;100.00
28927;BME280;16038;47.692;9.400;2023-03-05T06:23:31;96679.97;;;0.29;100.00
28927;BME280;16038;47.692;9.400;2023-03-05T06:25:58;96672.88;;;0.47;100.00
28927;BME280;16038;47.692;9.400;2023-03-05T06:28:23;96678.06;;;0.44;100.00
28927;BME280;16038;47.692;9.400;2023-03-05T06:30:49;96675.06;;;0.45;100.00
28927;BME280;16038;47.692;9.400;2023-03-05T06:33:14;96664.78;;;0.47;100.00
28927;BME280;16038;47.692;9.400;2023-03-05T06:35:39;96671.66;;;0.53;100.00
28927;BME280;16038;47.692;9.400;2023-03-05T06:38:05;96667.88;;;0.54;100.00
28927;BME280;16038;47.692;9.400;2023-03-05T06:40:31;96663.16;;;0.60;100.00
28927;BME280;16038;47.692;9.400;2023-03-05T06:42:56;96662.78;;;0.53;100.00
28927;BME280;16038;47.692;9.400;2023-03-05T06:45:21;96660.19;;;0.48;100.00
28927;BME280;16038;47.692;9.400;2023-03-05T06:47:47;96666.75;;;0.55;100.00
28927;BME280;16038;47.692;9.400;2023-03-05T06:50:12;96672.59;;;0.71;100.00
28927;BME280;16038;47.692;9.400;2023-03-05T06:52:37;96663.94;;;0.74;100.00
28927;BME280;16038;47.692;9.400;2023-03-05T06:55:05;96669.31;;;0.74;100.00
28927;BME280;16038;47.692;9.400;2023-03-05T06:57:30;96669.09;;;0.85;100.00
28927;BME280;16038;47.692;9.400;2023-03-05T06:59:56;96664.66;;;1.03;100.00
28927;BME280;16038;47.692;9.400;2023-03-05T07:02:21;96670.78;;;1.17;100.00
28927;BME280;16038;47.692;9.400;2023-03-05T07:04:47;96663.84;;;1.25;100.00
28927;BME280;16038;47.692;9.400;2023-03-05T07:07:12;96670.38;;;0.87;100.00
28927;BME280;16038;47.692;9.400;2023-03-05T07:09:37;96661.75;;;0.99;100.00
28927;BME280;16038;47.692;9.400;2023-03-05T07:12:10;96670.16;;;1.20;100.00
28927;BME280;16038;47.692;9.400;2023-03-05T07:14:36;96666.28;;;1.35;100.00
28927;BME280;16038;47.692;9.400;2023-03-05T07:17:01;96661.13;;;1.02;100.00
28927;BME280;16038;47.692;9.400;2023-03-05T07:19:27;96666.19;;;1.18;100.00
28927;BME280;16038;47.692;9.400;2023-03-05T07:21:53;96664.69;;;1.11;100.00
28927;BME280;16038;47.692;9.400;2023-03-05T07:24:18;96672.13;;;1.28;100.00
28927;BME280;16038;47.692;9.400;2023-03-05T07:26:43;96668.59;;;1.50;100.00
28927;BME280;16038;47.692;9.400;2023-03-05T07:29:08;96659.38;;;0.98;100.00
28927;BME280;16038;47.692;9.400;2023-03-05T07:31:34;96665.13;;;1.05;100.00
28927;BME280;16038;47.692;9.400;2023-03-05T07:34:00;96663.41;;;1.09;100.00
28927;BME280;16038;47.692;9.400;2023-03-05T07:36:25;96666.91;;;0.73;100.00
28927;BME280;16038;47.692;9.400;2023-03-05T07:38:51;96659.06;;;1.22;100.00
28927;BME280;16038;47.692;9.400;2023-03-05T07:41:17;96664.81;;;1.51;100.00
28927;BME280;16038;47.692;9.400;2023-03-05T07:43:44;96662.91;;;1.29;100.00
28927;BME280;16038;47.692;9.400;2023-03-05T07:46:10;96657.56;;;1.61;100.00
28927;BME280;16038;47.692;9.400;2023-03-05T07:48:36;96648.56;;;1.74;100.00
28927;BME280;16038;47.692;9.400;2023-03-05T07:51:02;96651.38;;;1.38;100.00
28927;BME280;16038;47.692;9.400;2023-03-05T07:53:27;96651.56;;;1.41;100.00
28927;BME280;16038;47.692;9.400;2023-03-05T07:55:52;96646.75;;;1.61;100.00
28927;BME280;16038;47.692;9.400;2023-03-05T07:58:18;96643.91;;;1.97;100.00
28927;BME280;16038;47.692;9.400;2023-03-05T08:00:43;96641.00;;;2.34;96.67
28927;BME280;16038;47.692;9.400;2023-03-05T08:03:08;96645.50;;;2.56;96.25
28927;BME280;16038;47.692;9.400;2023-03-05T08:05:33;96636.31;;;2.83;93.27
28927;BME280;16038;47.692;9.400;2023-03-05T08:07:59;96644.72;;;2.99;92.17
28927;BME280;16038;47.692;9.400;2023-03-05T08:10:24;96639.31;;;3.08;91.35
28927;BME280;16038;47.692;9.400;2023-03-05T08:12:49;96627.84;;;3.11;90.34
28927;BME280;16038;47.692;9.400;2023-03-05T08:15:14;96636.53;;;2.20;93.56
28927;BME280;16038;47.692;9.400;2023-03-05T08:17:40;96632.41;;;2.32;94.42
28927;BME280;16038;47.692;9.400;2023-03-05T08:20:05;96623.22;;;1.92;98.93
28927;BME280;16038;47.692;9.400;2023-03-05T08:22:34;96622.22;;;2.20;97.03
28927;BME280;16038;47.692;9.400;2023-03-05T08:25:00;96622.75;;;3.09;92.79
28927;BME280;16038;47.692;9.400;2023-03-05T08:27:25;96613.38;;;3.06;90.61
28927;BME280;16038;47.692;9.400;2023-03-05T08:29:51;96619.72;;;3.28;89.44
28927;BME280;16038;47.692;9.400;2023-03-05T08:32:16;96618.44;;;3.81;85.57
28927;BME280;16038;47.692;9.400;2023-03-05T08:34:41;96615.44;;;3.74;84.96
28927;BME280;16038;47.692;9.400;2023-03-05T08:37:07;96613.38;;;2.80;85.87
28927;BME280;16038;47.692;9.400;2023-03-05T08:39:33;96614.31;;;2.58;88.42
28927;BME280;16038;47.692;9.400;2023-03-05T08:41:59;96611.34;;;2.02;92.33
28927;BME280;16038;47.692;9.400;2023-03-05T08:44:24;96611.41;;;2.28;91.38
28927;BME280;16038;47.692;9.400;2023-03-05T08:46:49;96607.94;;;2.37;92.60
28927;BME280;16038;47.692;9.400;2023-03-05T08:49:14;96602.66;;;3.28;90.11
28927;BME280;16038;47.692;9.400;2023-03-05T08:51:40;96617.41;;;3.56;85.68
28927;BME280;16038;47.692;9.400;2023-03-05T08:54:05;96606.88;;;3.63;85.25
28927;BME280;16038;47.692;9.400;2023-03-05T08:56:31;96610.59;;;4.27;82.67
28927;BME280;16038;47.692;9.400;2023-03-05T08:58:56;96618.66;;;4.66;79.18
28927;BME280;16038;47.692;9.400;2023-03-05T09:01:21;96618.00;;;4.90;76.97
28927;BME280;16038;47.692;9.400;2023-03-05T09:03:48;96613.28;;;5.53;72.61
28927;BME280;16038;47.692;9.400;2023-03-05T09:06:13;96625.19;;;5.73;70.43
28927;BME280;16038;47.692;9.400;2023-03-05T09:08:39;96610.63;;;5.78;70.77
28927;BME280;16038;47.692;9.400;2023-03-05T09:11:05;96613.69;;;5.43;70.80
28927;BME280;16038;47.692;9.400;2023-03-05T09:13:31;96613.16;;;5.50;71.01
28927;BME280;16038;47.692;9.400;2023-03-05T09:15:57;96603.59;;;5.89;71.93
28927;BME280;16038;47.692;9.400;2023-03-05T09:18:23;96599.22;;;6.09;69.66
28927;BME280;16038;47.692;9.400;2023-03-05T09:20:48;96597.28;;;6.22;66.88
28927;BME280;16038;47.692;9.400;2023-03-05T09:23:13;96589.69;;;6.53;66.55
28927;BME280;16038;47.692;9.400;2023-03-05T09:25:39;96587.41;;;6.30;67.03
28927;BME280;16038;47.692;9.400;2023-03-05T09:28:05;96581.66;;;6.84;66.23
28927;BME280;16038;47.692;9.400;2023-03-05T09:30:30;96579.59;;;7.22;61.65
28927;BME280;16038;47.692;9.400;2023-03-05T09:32:55;96584.69;;;6.30;62.41
28927;BME280;16038;47.692;9.400;2023-03-05T09:35:21;96574.97;;;5.01;69.39
28927;BME280;16038;47.692;9.400;2023-03-05T09:37:46;96586.63;;;4.59;73.21
28927;BME280;16038;47.692;9.400;2023-03-05T09:40:15;96577.84;;;5.16;72.71
28927;BME280;16038;47.692;9.400;2023-03-05T09:42:49;96574.31;;;6.07;69.28
28927;BME280;16038;47.692;9.400;2023-03-05T09:47:50;96569.44;;;7.06;63.87
28927;BME280;16038;47.692;9.400;2023-03-05T09:50:29;96578.75;;;7.05;64.18
28927;BME280;16038;47.692;9.400;2023-03-05T09:55:44;96576.94;;;7.70;61.00
28927;BME280;16038;47.692;9.400;2023-03-05T09:58:18;96570.88;;;7.60;61.38
28927;BME280;16038;47.692;9.400;2023-03-05T10:00:47;96565.75;;;7.43;61.68
28927;BME280;16038;47.692;9.400;2023-03-05T10:05:44;96564.72;;;6.91;63.56
28927;BME280;16038;47.692;9.400;2023-03-05T10:08:11;96560.50;;;7.22;64.53
28927;BME280;16038;47.692;9.400;2023-03-05T10:10:42;96551.31;;;6.70;65.84
28927;BME280;16038;47.692;9.400;2023-03-05T10:13:25;96560.78;;;6.88;65.95
28927;BME280;16038;47.692;9.400;2023-03-05T10:18:26;96549.63;;;6.65;66.05
28927;BME280;16038;47.692;9.400;2023-03-05T10:20:58;96546.16;;;6.40;68.06
28927;BME280;16038;47.692;9.400;2023-03-05T10:26:17;96546.31;;;7.00;66.42
28927;BME280;16038;47.692;9.400;2023-03-05T10:39:41;96534.97;;;8.06;60.08
28927;BME280;16038;47.692;9.400;2023-03-05T10:42:19;96530.31;;;8.07;60.05
28927;BME280;16038;47.692;9.400;2023-03-05T10:44:49;96530.94;;;8.51;58.53
28927;BME280;16038;47.692;9.400;2023-03-05T10:47:31;96525.22;;;8.40;59.90
28927;BME280;16038;47.692;9.400;2023-03-05T10:49:59;96525.72;;;8.62;58.43
28927;BME280;16038;47.692;9.400;2023-03-05T10:52:30;96520.47;;;8.18;59.69
28927;BME280;16038;47.692;9.400;2023-03-05T10:54:57;96514.56;;;8.51;59.10
28927;BME280;16038;47.692;9.400;2023-03-05T10:57:26;96510.59;;;8.84;55.98
28927;BME280;16038;47.692;9.400;2023-03-05T10:59:53;96509.50;;;8.34;57.79
28927;BME280;16038;47.692;9.400;2023-03-05T11:02:20;96502.59;;;8.04;58.50
28927;BME280;16038;47.692;9.400;2023-03-05T11:04:46;96506.16;;;8.24;59.64
28927;BME280;16038;47.692;9.400;2023-03-05T11:10:00;96491.53;;;8.88;56.78
28927;BME280;16038;47.692;9.400;2023-03-05T11:12:27;96489.19;;;8.15;59.49
28927;BME280;16038;47.692;9.400;2023-03-05T11:17:34;96480.19;;;7.95;60.50
28927;BME280;16038;47.692;9.400;2023-03-05T11:23:04;96466.44;;;7.40;63.08
28927;BME280;16038;47.692;9.400;2023-03-05T11:25:32;96459.72;;;7.85;62.25
28927;BME280;16038;47.692;9.400;2023-03-05T11:27:58;96450.81;;;8.24;61.69
28927;BME280;16038;47.692;9.400;2023-03-05T11:30:26;96452.63;;;8.36;60.54
28927;BME280;16038;47.692;9.400;2023-03-05T11:35:37;96450.78;;;8.04;62.89
28927;BME280;16038;47.692;9.400;2023-03-05T11:38:04;96436.97;;;7.97;61.33
28927;BME280;16038;47.692;9.400;2023-03-05T11:40:30;96433.72;;;8.27;60.85
28927;BME280;16038;47.692;9.400;2023-03-05T11:42:57;96433.81;;;7.95;61.72
28927;BME280;16038;47.692;9.400;2023-03-05T11:45:23;96430.81;;;8.36;60.39
28927;BME280;16038;47.692;9.400;2023-03-05T11:47:51;96425.44;;;8.59;59.62
28927;BME280;16038;47.692;9.400;2023-03-05T11:52:53;96421.19;;;8.42;59.40
28927;BME280;16038;47.692;9.400;2023-03-05T11:55:21;96419.84;;;8.52;60.00
28927;BME280;16038;47.692;9.400;2023-03-05T11:57:52;96423.72;;;8.15;59.88
28927;BME280;16038;47.692;9.400;2023-03-05T12:00:23;96410.38;;;8.30;61.04
28927;BME280;16038;47.692;9.400;2023-03-05T12:02:51;96410.41;;;9.11;58.51
28927;BME280;16038;47.692;9.400;2023-03-05T12:05:18;96408.28;;;9.47;56.87
28927;BME280;16038;47.692;9.400;2023-03-05T12:07:46;96413.19;;;9.15;56.03
28927;BME280;16038;47.692;9.400;2023-03-05T12:10:16;96408.25;;;8.58;58.26
28927;BME280;16038;47.692;9.400;2023-03-05T12:12:52;96401.28;;;8.80;56.63
28927;BME280;16038;47.692;9.400;2023-03-05T12:15:44;96397.59;;;8.73;57.81
28927;BME280;16038;47.692;9.400;2023-03-05T12:18:14;96398.47;;;8.77;57.46
28927;BME280;16038;47.692;9.400;2023-03-05T12:23:26;96385.66;;;9.50;54.33
28927;BME280;16038;47.692;9.400;2023-03-05T12:25:55;96379.66;;;9.94;53.90
28927;BME280;16038;47.692;9.400;2023-03-05T12:30:59;96371.78;;;10.91;50.17
28927;BME280;16038;47.692;9.400;2023-03-05T12:38:40;96365.97;;;10.96;50.21
28927;BME280;16038;47.692;9.400;2023-03-05T12:41:31;96356.81;;;11.22;50.22
28927;BME280;16038;47.692;9.400;2023-03-05T12:46:30;96355.47;;;10.61;46.67
28927;BME280;16038;47.692;9.400;2023-03-05T12:51:43;96347.38;;;9.77;48.45
28927;BME280;16038;47.692;9.400;2023-03-05T12:54:28;96342.94;;;8.92;52.69
28927;BME280;16038;47.692;9.400;2023-03-05T12:57:02;96335.16;;;7.54;54.58
28927;BME280;16038;47.692;9.400;2023-03-05T12:59:41;96338.22;;;8.66;53.60
28927;BME280;16038;47.692;9.400;2023-03-05T13:02:19;96332.50;;;8.98;51.69
28927;BME280;16038;47.692;9.400;2023-03-05T13:04:49;96324.31;;;8.98;53.01
28927;BME280;16038;47.692;9.400;2023-03-05T13:07:17;96314.09;;;8.49;52.49
28927;BME280;16038;47.692;9.400;2023-03-05T13:09:53;96308.25;;;9.19;49.89
28927;BME280;16038;47.692;9.400;2023-03-05T13:12:18;96314.50;;;9.47;46.45
28927;BME280;16038;47.692;9.400;2023-03-05T13:14:48;96296.22;;;8.97;50.98
28927;BME280;16038;47.692;9.400;2023-03-05T13:17:27;96306.13;;;8.40;52.85
28927;BME280;16038;47.692;9.400;2023-03-05T13:19:53;96307.81;;;8.25;52.72
28927;BME280;16038;47.692;9.400;2023-03-05T13:22:19;96298.19;;;8.12;53.34
28927;BME280;16038;47.692;9.400;2023-03-05T13:24:44;96297.38;;;7.72;51.28
28927;BME280;16038;47.692;9.400;2023-03-05T13:27:30;96298.56;;;7.91;53.49
28927;BME280;16038;47.692;9.400;2023-03-05T13:29:56;96294.97;;;7.87;50.21
28927;BME280;16038;47.692;9.400;2023-03-05T13:32:28;96298.59;;;8.14;48.20
28927;BME280;16038;47.692;9.400;2023-03-05T13:34:55;96284.94;;;8.33;48.26
28927;BME280;16038;47.692;9.400;2023-03-05T13:37:25;96295.13;;;8.56;47.02
28927;BME280;16038;47.692;9.400;2023-03-05T13:39:55;96292.06;;;8.38;46.57
28927;BME280;16038;47.692;9.400;2023-03-05T13:42:22;96293.19;;;8.37;45.26
28927;BME280;16038;47.692;9.400;2023-03-05T13:44:55;96281.13;;;7.05;48.80
28927;BME280;16038;47.692;9.400;2023-03-05T13:47:21;96286.34;;;7.45;49.11
28927;BME280;16038;47.692;9.400;2023-03-05T13:49:53;96280.38;;;8.18;48.93
28927;BME280;16038;47.692;9.400;2023-03-05T13:52:26;96285.59;;;8.69;47.58
28927;BME280;16038;47.692;9.400;2023-03-05T13:54:54;96274.78;;;8.99;47.63
28927;BME280;16038;47.692;9.400;2023-03-05T13:57:43;96277.34;;;8.42;47.27